Latest Weather Observations for Dalby

IDQ60801

Issued at 10:12 pm EST Thursday 16 August 2018 (issued every 10 minutes, with the page automatically refreshed every 10 minutes)

About weather observations | Map of weather stations | Latest weather observations for QLD | Other Formats
Station Details ID: 041522 Name: DALBY AIRPORT Lat: -27.16 Lon: 151.26 Height: 343.9 m
Data from the previous 72 hours. | See also: Recent months at Dalby
Date/Time
EST
Temp
°C
App
Temp
°C
Dew
Point
°C
Rel
Hum
%
Delta-T
°C
Wind Press
QNH
hPa
Press
MSL
hPa
Rain since
9am
mm
Dir  Spd
km/h
Gust
km/h
Spd
kts
Gust
kts
16/10:00pm 5.8 0.9 -12.7 25 5.3 NNE 9 11 5 6 1014.7 1014.5 0.0
16/09:30pm 9.2 6.2 -9.8 25 6.1 CALM 0 0 0 0 1014.7 1014.5 0.0
16/09:00pm 8.9 5.7 -11.6 22 6.3 CALM 0 0 0 0 1014.5 1014.3 0.0
16/08:30pm 9.4 6.3 -11.2 22 6.4 CALM 0 0 0 0 1014.4 1014.2 0.0
16/08:00pm 10.6 7.4 -12.7 18 7.2 CALM 0 0 0 0 1014.2 1014.0 0.0
16/07:30pm 14.7 10.5 -7.4 21 8.1 WSW 7 9 4 5 1014.0 1013.8 0.0
16/07:00pm 14.2 9.9 -9.1 19 8.2 WSW 7 9 4 5 1013.8 1013.6 0.0
16/06:30pm 16.1 11.4 -9.7 16 9.1 W 9 9 5 5 1013.6 1013.3 0.0
16/06:00pm 19.3 13.9 -8.8 14 10.5 SW 13 15 7 8 1013.3 1013.0 0.0
16/05:30pm 22.3 16.9 -8.4 12 12.0 WSW 13 20 7 11 1013.0 1012.7 0.0
16/05:00pm 24.5 18.0 -7.9 11 13.0 WSW 19 24 10 13 1012.9 1012.6 0.0
16/04:30pm 25.4 19.2 -8.4 10 13.6 WSW 17 28 9 15 1012.8 1012.5 0.0
16/04:00pm 25.8 19.3 -8.1 10 13.8 WNW 19 28 10 15 1012.9 1012.6 0.0
16/03:30pm 26.0 18.9 -7.9 10 13.8 W 22 30 12 16 1012.9 1012.6 0.0
16/03:00pm 25.9 18.8 -8.0 10 13.8 WSW 22 32 12 17 1013.2 1012.9 0.0
16/02:30pm 25.6 18.9 -8.2 10 13.7 W 20 35 11 19 1013.2 1012.9 0.0
16/02:00pm 25.8 18.7 -8.1 10 13.8 W 22 32 12 17 1013.5 1013.2 0.0
16/01:37pm 26.0 17.8 -7.9 10 13.8 SW 28 46 15 25 1013.7 1013.4 0.0
16/01:30pm 26.1 18.7 -7.9 10 13.9 WSW 24 37 13 20 1013.8 1013.6 0.0
16/01:00pm 25.9 18.8 -8.0 10 13.8 WSW 22 44 12 24 1014.2 1014.0 0.0
16/12:30pm 25.5 17.3 -8.3 10 13.6 WSW 28 39 15 21 1015.0 1014.7 0.0
16/12:00pm 25.0 18.3 -7.5 11 13.2 W 20 32 11 17 1015.6 1015.3 0.0
16/11:30am 23.7 17.2 -6.3 13 12.3 WSW 20 35 11 19 1015.9 1015.6 0.0
16/11:00am 23.2 17.8 -4.8 15 11.8 W 15 24 8 13 1016.3 1016.0 0.0
16/10:30am 22.4 17.0 -1.6 20 10.7 NW 17 26 9 14 1016.8 1016.6 0.0
16/10:00am 20.0 14.0 -1.2 24 9.3 NW 20 26 11 14 1017.1 1016.9 0.0
16/09:30am 18.8 12.1 -1.1 26 8.7 NW 24 32 13 17 1017.3 1017.1 0.0
16/09:00am 17.4 10.9 0.1 31 7.6 NW 24 33 13 18 1017.3 1017.1 0.0
16/08:30am 16.0 8.8 1.0 36 6.7 NNW 28 33 15 18 1017.0 1016.8 0.0
16/08:00am 14.4 8.0 1.0 40 5.9 NNW 24 32 13 17 1017.0 1016.8 0.0
16/07:30am 12.4 7.1 -0.8 40 5.4 NNW 17 20 9 11 1016.9 1016.7 0.0
16/07:00am 8.6 4.1 -2.9 44 4.3 NNW 11 13 6 7 1016.7 1016.5 0.0
16/06:30am 7.3 2.3 -4.4 43 4.2 NNW 13 15 7 8 1016.5 1016.3 0.0
16/06:00am 8.1 2.4 -4.0 42 4.4 NNW 17 19 9 10 1016.1 1015.8 0.0
16/05:30am 8.8 2.7 -3.7 41 4.6 NNW 19 20 10 11 1015.9 1015.6 0.0
16/05:00am 7.8 2.4 -4.9 40 4.5 NNW 15 20 8 11 1015.7 1015.4 0.0
16/04:30am 7.3 1.8 -5.7 39 4.5 NNW 15 17 8 9 1015.4 1015.1 0.0
16/04:00am 6.6 1.0 -6.7 38 4.5 N 15 17 8 9 1015.5 1015.2 0.0
16/03:30am 7.7 2.5 -6.4 36 4.8 NNW 13 15 7 8 1015.7 1015.4 0.0
16/03:00am 8.2 2.2 -6.7 34 5.1 NNW 17 19 9 10 1016.0 1015.7 0.0
16/02:30am 7.8 1.8 -7.1 34 5.0 NNW 17 19 9 10 1016.1 1015.8 0.0
16/02:00am 8.1 3.2 -7.6 32 5.2 NNW 11 13 6 7 1016.4 1016.2 0.0
16/01:30am 9.1 3.5 -6.7 32 5.5 NNW 15 17 8 9 1016.6 1016.4 0.0
16/01:00am 7.3 1.5 -8.3 32 5.1 NNW 15 17 8 9 1016.8 1016.6 0.0
16/12:30am 6.8 1.3 -9.5 30 5.1 N 13 13 7 7 1016.9 1016.7 0.0
16/12:00am 8.2 3.5 -9.2 28 5.6 N 9 11 5 6 1017.1 1016.9 0.0
 
Date/Time
EST
Temp
°C
App
Temp
°C
Dew
Point
°C
Rel
Hum
%
Delta-T
°C
Wind Press
QNH
hPa
Press
MSL
hPa
Rain since
9am
mm
Dir  Spd
km/h
Gust
km/h
Spd
kts
Gust
kts
15/11:30pm 8.3 4.2 -7.0 33 5.2 N 7 11 4 6 1017.4 1017.2 0.0
15/11:00pm 9.1 5.0 -7.1 31 5.5 N 7 11 4 6 1017.4 1017.2 0.0
15/10:30pm 8.4 2.9 -9.5 27 5.7 N 13 17 7 9 1017.5 1017.3 0.0
15/10:00pm 9.7 5.1 -7.9 28 6.0 NNW 9 11 5 6 1017.5 1017.3 0.0
15/09:30pm 9.3 4.2 -9.2 26 6.1 NNW 11 13 6 7 1017.6 1017.4 0.0
15/09:00pm 10.4 6.3 -8.2 26 6.3 N 6 7 3 4 1017.9 1017.6 0.0
15/08:30pm 10.3 6.0 -8.8 25 6.4 N 7 9 4 5 1017.6 1017.4 0.0
15/08:00pm 10.8 5.3 -10.0 22 6.8 N 13 15 7 8 1017.5 1017.3 0.0
15/07:30pm 11.7 6.3 -8.7 23 7.0 NNW 13 15 7 8 1017.4 1017.2 0.0
15/07:00pm 12.0 6.8 -10.2 20 7.4 NNW 11 19 6 10 1017.3 1017.1 0.0
15/06:30pm 15.6 11.1 -7.2 20 8.5 WNW 9 9 5 5 1017.2 1017.0 0.0
15/06:00pm 17.8 12.9 -6.8 18 9.4 WNW 11 13 6 7 1017.1 1016.9 0.0
15/05:30pm 20.6 14.9 -7.8 14 11.0 NW 15 17 8 9 1016.8 1016.6 0.0
15/05:00pm 23.5 16.5 -7.5 12 12.4 NW 22 30 12 16 1016.7 1016.5 0.0
15/04:30pm 24.6 18.2 -6.7 12 12.9 NW 19 26 10 14 1016.7 1016.5 0.0
15/04:00pm 24.7 17.8 -6.6 12 12.9 WNW 22 28 12 15 1016.8 1016.6 0.0
15/03:30pm 24.9 18.4 -6.4 12 13.0 WNW 20 28 11 15 1016.9 1016.7 0.0
15/03:00pm 25.0 18.1 -6.3 12 13.0 WNW 22 30 12 16 1017.0 1016.8 0.0
15/02:30pm 24.3 17.4 -5.8 13 12.6 NNW 22 32 12 17 1017.2 1017.0 0.0
15/02:00pm 24.6 18.2 -6.7 12 12.9 WNW 19 26 10 14 1017.9 1017.6 0.0
15/01:30pm 24.4 17.5 -5.8 13 12.6 WNW 22 33 12 18 1018.3 1018.0 0.0
15/01:00pm 23.9 17.7 -5.2 14 12.2 NW 19 35 10 19 1018.8 1018.5 0.0
15/12:30pm 22.8 16.5 -6.1 14 11.8 NW 19 28 10 15 1019.7 1019.5 0.0
15/12:00pm 22.1 15.6 -5.7 15 11.4 W 20 28 11 15 1020.3 1020.1 0.0
15/11:30am 22.5 16.2 -3.7 17 11.2 WNW 20 30 11 16 1021.0 1020.7 0.0
15/11:00am 21.4 15.7 -3.9 18 10.6 NW 17 24 9 13 1021.5 1021.3 0.0
15/10:30am 20.1 15.6 -3.5 20 9.9 NW 11 19 6 10 1021.9 1021.7 0.0
15/10:00am 18.4 14.6 -3.7 22 9.1 WNW 7 11 4 6 1022.4 1022.2 0.0
15/09:30am 16.4 12.2 -3.7 25 8.1 WNW 9 15 5 8 1022.5 1022.3 0.0
15/09:00am 14.7 10.2 -3.1 29 7.1 NW 11 15 6 8 1022.6 1022.4 0.0
15/08:30am 11.5 9.0 -4.2 33 5.9 CALM 0 0 0 0 1022.7 1022.5 0.0
15/08:00am 9.0 5.3 -4.2 39 4.8 ENE 6 7 3 4 1022.4 1022.2 0.0
15/07:30am 5.8 1.9 -4.6 47 3.6 E 7 9 4 5 1022.2 1022.0 0.0
15/07:00am 2.3 -2.1 -5.8 55 2.8 ESE 9 11 5 6 1022.0 1021.8 0.0
15/06:30am 0.6 -3.9 -6.5 59 2.3 ESE 9 9 5 5 1021.6 1021.4 0.0
15/06:00am 0.4 -2.5 -7.6 55 2.4 CALM 0 6 0 3 1021.5 1021.3 0.0
15/05:30am 0.6 -2.7 -8.9 49 2.8 NE 2 6 1 3 1021.5 1021.3 0.0
15/05:00am 0.1 -4.2 -11.0 43 3.1 N 6 6 3 3 1021.6 1021.4 0.0
15/04:30am 1.3 -1.8 -10.8 40 3.5 CALM 0 0 0 0 1021.5 1021.3 0.0
15/04:00am 1.8 -2.3 -9.4 43 3.4 NW 6 7 3 4 1021.7 1021.5 0.0
15/03:30am 1.4 -3.2 -8.1 49 3.0 WNW 9 11 5 6 1022.0 1021.8 0.0
15/03:00am 2.2 -1.5 -8.5 45 3.3 NE 4 7 2 4 1022.0 1021.8 0.0
15/02:30am 2.9 -1.5 -6.2 51 3.1 E 9 9 5 5 1021.7 1021.5 0.0
15/02:00am 3.8 -1.5 -7.0 45 3.4 ENE 13 13 7 7 1021.8 1021.6 0.0
15/01:30am 4.8 0.1 -5.5 47 3.5 ENE 11 13 6 7 1022.0 1021.8 0.0
15/01:00am 3.6 -1.7 -7.2 45 3.4 ENE 13 15 7 8 1022.2 1022.0 0.0
15/12:30am 3.3 -1.9 -6.6 48 3.2 ENE 13 15 7 8 1022.4 1022.2 0.0
15/12:00am 2.9 -1.3 -10.3 37 4.0 ENE 6 9 3 5 1022.5 1022.3 0.0
 
Date/Time
EST
Temp
°C
App
Temp
°C
Dew
Point
°C
Rel
Hum
%
Delta-T
°C
Wind Press
QNH
hPa
Press
MSL
hPa
Rain since
9am
mm
Dir  Spd
km/h
Gust
km/h
Spd
kts
Gust
kts
14/11:30pm 4.4 0.2 -10.4 33 4.4 N 6 6 3 3 1022.7 1022.5 0.0
14/11:00pm 4.5 -0.3 -11.1 31 4.8 N 9 11 5 6 1022.9 1022.7 0.0
14/10:30pm 4.6 -0.3 -11.5 30 4.9 NE 9 9 5 5 1022.9 1022.7 0.0
14/10:00pm 5.6 1.2 -10.2 31 4.8 NNE 7 7 4 4 1022.7 1022.5 0.0
14/09:30pm 6.7 2.4 -10.9 27 5.3 NNE 6 7 3 4 1022.6 1022.4 0.0
14/09:00pm 9.1 6.1 -8.9 27 5.9 CALM 0 0 0 0 1022.8 1022.6 0.0
14/08:30pm 10.7 6.2 -6.6 29 6.1 WNW 9 9 5 5 1022.4 1022.2 0.0
14/08:00pm 10.5 6.2 -9.2 24 6.5 WNW 7 11 4 6 1022.2 1022.0 0.0
14/07:30pm 12.3 8.9 -9.4 21 7.4 NW 2 6 1 3 1022.0 1021.8 0.0
14/07:00pm 13.6 9.6 -7.7 22 7.6 WNW 6 7 3 4 1021.8 1021.6 0.0
14/06:30pm 15.1 12.2 -8.3 19 8.4 CALM 0 0 0 0 1021.4 1021.2 0.0
14/06:00pm 17.2 14.3 -8.0 17 9.3 CALM 0 0 0 0 1021.3 1021.0 0.0
14/05:30pm 20.7 17.8 -7.7 14 11.0 CALM 0 0 0 0 1021.2 1020.9 0.0
14/05:00pm 22.3 19.5 -7.4 13 11.8 CALM 0 0 0 0 1021.1 1020.8 0.0
14/04:30pm 23.5 19.9 -7.5 12 12.4 SW 4 9 2 5 1020.8 1020.6 0.0
14/04:00pm 23.1 19.1 -7.8 12 12.2 W 6 11 3 6 1021.0 1020.7 0.0
14/03:30pm 23.3 18.1 -6.6 13 12.2 SW 13 20 7 11 1021.2 1020.9 0.0
14/03:00pm 22.7 18.3 -6.1 14 11.7 W 9 17 5 9 1021.1 1020.8 0.0
14/02:30pm 22.0 17.1 -6.7 14 11.5 SW 11 17 6 9 1021.4 1021.2 0.0
14/02:00pm 21.5 18.1 -5.3 16 11.0 SSW 4 11 2 6 1021.7 1021.5 0.0
14/01:30pm 21.2 17.4 -4.0 18 10.6 W 7 13 4 7 1022.1 1021.9 0.0
14/01:00pm 20.2 16.3 -4.8 18 10.2 SSW 7 13 4 7 1022.6 1022.4 0.0
14/12:30pm 19.7 15.1 -3.9 20 9.8 S 11 20 6 11 1023.1 1022.9 0.0
14/12:00pm 19.0 15.5 -2.6 23 9.1 ESE 6 17 3 9 1023.8 1023.7 0.0
14/11:30am 17.7 13.3 -2.5 25 8.5 SSE 11 19 6 10 1024.4 1024.2 0.0
14/11:00am 17.0 12.3 -1.6 28 7.8 ESE 13 19 7 10 1024.8 1024.6 0.0
14/10:30am 16.0 11.7 -1.5 30 7.4 SE 11 17 6 9 1025.4 1025.2 0.0
14/10:00am 14.8 10.9 -1.3 33 6.7 ESE 9 15 5 8 1025.9 1025.7 0.0
14/09:30am 12.3 8.9 -2.3 36 5.8 SSE 6 13 3 7 1026.2 1026.0 0.0
14/09:00am 10.6 7.0 -2.1 41 5.0 SSE 7 13 4 7 1026.4 1026.3 0.0
14/08:30am 9.9 7.6 -2.1 43 4.7 CALM 0 0 0 0 1026.1 1025.9 0.0
14/08:00am 7.1 4.8 -2.1 52 3.5 CALM 0 0 0 0 1026.1 1025.9 0.0
14/07:30am 3.2 0.7 -4.3 58 2.6 CALM 0 0 0 0 1025.7 1025.5 0.0
14/07:00am 0.2 -3.6 -5.2 67 1.7 ESE 6 7 3 4 1025.3 1025.1 0.0
14/06:30am -2.0 -6.5 -7.3 67 1.5 ENE 9 11 5 6 1024.9 1024.7 0.0
14/06:00am -2.0 -6.3 -8.7 60 1.8 NNE 7 9 4 5 1024.6 1024.4 0.0
14/05:30am -2.0 -6.4 -9.6 56 2.0 NNE 7 9 4 5 1024.5 1024.3 0.0
14/05:00am -1.3 -5.6 -8.7 57 2.1 NNE 7 7 4 4 1024.4 1024.2 0.0
14/04:30am -1.4 -5.7 -8.8 57 2.1 N 7 7 4 4 1024.3 1024.1 0.0
14/04:00am -1.1 -5.4 -8.7 56 2.1 NNE 7 7 4 4 1023.9 1023.8 0.0
14/03:30am -0.9 -5.6 -9.5 52 2.4 N 9 11 5 6 1023.8 1023.7 0.0
14/03:00am -1.1 -5.5 -10.2 50 2.5 N 7 9 4 5 1024.1 1023.9 0.0
14/02:30am 0.0 -4.1 -8.9 51 2.6 N 6 7 3 4 1024.1 1023.9 0.0
14/02:00am 0.9 -3.4 -9.1 47 3.0 NW 7 11 4 6 1024.4 1024.2 0.0
14/01:30am 1.0 -3.8 -9.9 44 3.2 NW 9 9 5 5 1024.6 1024.4 0.0
14/01:00am 1.2 -3.5 -9.4 45 3.1 N 9 13 5 7 1024.8 1024.6 0.0
14/12:30am 1.3 -3.4 -8.7 47 3.1 N 9 15 5 8 1024.8 1024.6 0.0
14/12:00am 2.5 -2.2 -8.8 43 3.5 N 9 13 5 7 1025.0 1024.8 0.0
 
Date/Time
EST
Temp
°C
App
Temp
°C
Dew
Point
°C
Rel
Hum
%
Delta-T
°C
Wind Press
QNH
hPa
Press
MSL
hPa
Rain since
9am
mm
Dir  Spd
km/h
Gust
km/h
Spd
kts
Gust
kts
13/11:30pm 4.3 1.0 -8.1 40 3.9 WNW 2 6 1 3 1025.1 1024.9 0.0
13/11:00pm 4.7 0.1 -7.7 40 3.9 WNW 9 9 5 5 1025.1 1024.9 0.0
13/10:30pm 3.8 0.0 -9.2 38 4.2 WNW 4 6 2 3 1025.1 1024.9 0.0

Other Formats:

Comma delimited format used in spreadsheet applications
http://www.bom.gov.au/fwo/IDQ60801/IDQ60801.94542.axf

JavaScript Object Notation format (JSON) in row-major order
http://www.bom.gov.au/fwo/IDQ60801/IDQ60801.94542.json